createdAt,value
2022-12-08T00:01:30.348Z,1.12
2022-12-08T00:03:58.956Z,1.07
2022-12-08T00:06:53.212Z,1.15
2022-12-08T00:09:39.175Z,1.11
2022-12-08T00:12:11.499Z,1.07
2022-12-08T00:14:40.210Z,1.06
2022-12-08T00:17:08.463Z,0.96
2022-12-08T00:19:35.203Z,0.98
2022-12-08T00:22:03.294Z,0.90
2022-12-08T00:24:31.887Z,0.93
2022-12-08T00:26:58.572Z,0.95
2022-12-08T00:29:25.170Z,1.06
2022-12-08T00:31:51.908Z,1.02
2022-12-08T00:34:18.608Z,1.09
2022-12-08T00:36:45.455Z,1.05
2022-12-08T00:39:13.324Z,0.99
2022-12-08T00:41:58.460Z,0.97
2022-12-08T00:44:25.173Z,0.94
2022-12-08T00:46:51.827Z,0.93
2022-12-08T00:49:18.916Z,0.98
2022-12-08T00:51:45.562Z,0.93
2022-12-08T00:54:12.579Z,0.95
2022-12-08T00:56:39.219Z,0.91
2022-12-08T00:59:08.168Z,0.87
2022-12-08T01:01:35.849Z,0.91
2022-12-08T01:04:04.779Z,0.85
2022-12-08T01:06:36.986Z,0.97
2022-12-08T01:09:04.923Z,0.97
2022-12-08T01:11:32.477Z,0.93
2022-12-08T01:13:59.330Z,0.96
2022-12-08T01:16:27.811Z,0.86
2022-12-08T01:18:54.717Z,0.82
2022-12-08T01:21:21.944Z,0.82
2022-12-08T01:23:48.710Z,0.90
2022-12-08T01:26:16.840Z,0.90
2022-12-08T01:28:43.998Z,0.77
2022-12-08T01:31:17.268Z,0.82
2022-12-08T01:33:45.384Z,0.84
2022-12-08T01:36:26.872Z,0.78
2022-12-08T01:38:54.480Z,0.81
2022-12-08T01:41:23.484Z,0.87
2022-12-08T01:44:10.712Z,0.84
2022-12-08T01:46:42.574Z,0.75
2022-12-08T01:49:18.518Z,0.80
2022-12-08T01:51:59.201Z,0.69
2022-12-08T01:54:29.578Z,0.61
2022-12-08T01:57:02.337Z,0.66
2022-12-08T01:59:29.946Z,0.58
2022-12-08T02:01:57.245Z,0.60
2022-12-08T02:04:23.845Z,0.63
2022-12-08T02:06:51.956Z,0.69
2022-12-08T02:09:19.640Z,0.57
2022-12-08T02:11:46.324Z,0.57
2022-12-08T02:14:13.850Z,0.62
2022-12-08T02:16:49.525Z,0.70
2022-12-08T02:19:48.003Z,0.81
2022-12-08T02:22:30.734Z,0.76
2022-12-08T02:25:31.772Z,0.84
2022-12-08T02:28:04.633Z,0.83
2022-12-08T02:30:49.201Z,0.75
2022-12-08T02:33:43.837Z,0.73
2022-12-08T02:36:23.339Z,0.84
2022-12-08T02:39:01.143Z,0.83
2022-12-08T02:41:46.479Z,0.94
2022-12-08T02:44:21.734Z,0.87
2022-12-08T02:46:53.659Z,0.89
2022-12-08T02:49:20.287Z,0.89
2022-12-08T02:51:46.894Z,0.97
2022-12-08T02:54:14.415Z,0.92
2022-12-08T02:57:16.584Z,0.85
2022-12-08T02:59:55.128Z,0.88
2022-12-08T03:02:31.308Z,0.95
2022-12-08T03:05:16.398Z,0.92
2022-12-08T03:07:54.000Z,0.94
2022-12-08T03:10:30.114Z,0.91
2022-12-08T03:13:02.923Z,0.93
2022-12-08T03:15:30.641Z,0.99
2022-12-08T03:17:59.388Z,0.91
2022-12-08T03:20:28.161Z,0.97
2022-12-08T03:22:56.699Z,0.98
2022-12-08T03:25:28.016Z,1.01
2022-12-08T03:27:54.649Z,0.99
2022-12-08T03:30:21.565Z,1.04
2022-12-08T03:33:09.420Z,0.99
2022-12-08T03:35:39.546Z,0.85
2022-12-08T03:38:14.851Z,0.88
2022-12-08T03:40:42.043Z,0.87
2022-12-08T03:43:08.667Z,0.85
2022-12-08T03:45:35.662Z,0.91
2022-12-08T03:48:02.344Z,0.95
2022-12-08T03:50:28.960Z,0.94
2022-12-08T03:52:55.529Z,0.99
2022-12-08T03:55:22.154Z,1.00
2022-12-08T03:57:48.684Z,1.01
2022-12-08T04:00:16.889Z,0.99
2022-12-08T04:02:43.685Z,1.03
2022-12-08T04:05:13.608Z,1.10
2022-12-08T04:07:40.348Z,1.14
2022-12-08T04:10:07.849Z,1.13
2022-12-08T04:12:34.641Z,1.07
2022-12-08T04:15:01.234Z,1.12
2022-12-08T04:17:30.124Z,1.16
2022-12-08T04:19:56.701Z,1.17
2022-12-08T04:22:23.300Z,1.21
2022-12-08T04:24:50.051Z,1.15
2022-12-08T04:27:16.723Z,1.13
2022-12-08T04:29:45.596Z,1.17
2022-12-08T04:32:12.211Z,1.17
2022-12-08T04:34:38.977Z,1.21
2022-12-08T04:37:05.614Z,1.23
2022-12-08T04:39:32.196Z,1.23
2022-12-08T04:41:58.942Z,1.19
2022-12-08T04:44:25.552Z,1.21
2022-12-08T04:46:52.232Z,1.20
2022-12-08T04:49:18.926Z,1.18
2022-12-08T04:51:45.533Z,1.18
2022-12-08T04:54:12.162Z,1.24
2022-12-08T04:56:38.826Z,1.15
2022-12-08T04:59:05.601Z,1.22
2022-12-08T05:01:32.519Z,1.23
2022-12-08T05:03:59.262Z,1.29
2022-12-08T05:06:25.940Z,1.20
2022-12-08T05:08:55.009Z,1.14
2022-12-08T05:11:21.532Z,1.24
2022-12-08T05:13:48.356Z,1.18
2022-12-08T05:16:17.911Z,1.17
2022-12-08T05:18:44.831Z,1.28
2022-12-08T05:21:11.645Z,1.17
2022-12-08T05:23:38.422Z,1.07
2022-12-08T05:26:05.222Z,1.02
2022-12-08T05:28:41.324Z,1.08
2022-12-08T05:31:08.845Z,1.17
2022-12-08T05:33:35.598Z,1.09
2022-12-08T05:36:02.337Z,0.98
2022-12-08T05:38:29.540Z,0.93
2022-12-08T05:40:56.147Z,0.93
2022-12-08T05:43:22.740Z,0.94
2022-12-08T05:45:49.356Z,0.89
2022-12-08T05:48:16.487Z,0.92
2022-12-08T05:50:49.681Z,0.95
2022-12-08T05:53:17.803Z,1.02
2022-12-08T05:56:04.053Z,0.97
2022-12-08T05:58:30.612Z,0.87
2022-12-08T06:00:57.206Z,0.84
2022-12-08T06:03:25.483Z,0.87
2022-12-08T06:05:52.128Z,0.85
2022-12-08T06:08:18.809Z,0.86
2022-12-08T06:10:46.131Z,0.94
2022-12-08T06:13:13.378Z,0.92
2022-12-08T06:15:40.590Z,1.01
2022-12-08T06:18:10.687Z,0.98
2022-12-08T06:20:37.327Z,1.01
2022-12-08T06:23:03.926Z,1.04
2022-12-08T06:25:30.552Z,1.06
2022-12-08T06:27:57.222Z,1.08
2022-12-08T06:30:23.942Z,1.06
2022-12-08T06:32:50.546Z,1.10
2022-12-08T06:35:17.238Z,1.09
2022-12-08T06:37:43.844Z,1.09
2022-12-08T06:40:10.850Z,1.12
2022-12-08T06:42:49.585Z,1.12
2022-12-08T06:45:17.597Z,1.14
2022-12-08T06:47:44.559Z,1.24
2022-12-08T06:50:12.100Z,1.22
2022-12-08T06:52:49.261Z,1.25
2022-12-08T06:55:42.547Z,1.23
2022-12-08T06:58:06.556Z,1.31
2022-12-08T07:00:33.311Z,1.26
2022-12-08T07:03:00.005Z,1.33
2022-12-08T07:05:26.705Z,1.28
2022-12-08T07:07:53.430Z,1.29
2022-12-08T07:10:20.120Z,1.28
2022-12-08T07:12:46.705Z,1.29
2022-12-08T07:15:13.455Z,1.30
2022-12-08T07:17:40.072Z,1.30
2022-12-08T07:20:07.741Z,1.30
2022-12-08T07:22:34.485Z,1.35
2022-12-08T07:25:01.093Z,1.36
2022-12-08T07:27:31.175Z,1.34
2022-12-08T07:30:12.335Z,1.35
2022-12-08T07:32:41.335Z,1.31
2022-12-08T07:35:13.959Z,1.31
2022-12-08T07:37:45.393Z,1.33
2022-12-08T07:40:15.610Z,1.33
2022-12-08T07:43:26.744Z,1.39
2022-12-08T07:46:10.007Z,1.40
2022-12-08T07:51:48.729Z,1.36
2022-12-08T07:55:05.279Z,1.47
2022-12-08T07:57:39.829Z,1.44
2022-12-08T08:00:07.789Z,1.49
2022-12-08T08:02:49.190Z,1.40
2022-12-08T08:05:17.171Z,1.50
2022-12-08T08:19:55.630Z,1.55
2022-12-08T08:23:01.710Z,1.47
2022-12-08T08:26:06.014Z,1.43
2022-12-08T08:28:47.994Z,1.48
2022-12-08T08:31:33.893Z,1.53
2022-12-08T08:34:29.360Z,1.56
2022-12-08T08:43:41.690Z,1.42
2022-12-08T08:46:52.418Z,1.41
2022-12-08T08:49:29.139Z,1.51
2022-12-08T08:51:58.982Z,1.55
2022-12-08T08:55:13.821Z,1.48
2022-12-08T08:57:43.958Z,1.45
2022-12-08T09:00:31.603Z,1.45
2022-12-08T09:02:59.922Z,1.48
2022-12-08T09:06:18.983Z,1.39
2022-12-08T09:09:02.562Z,1.38
2022-12-08T09:15:03.389Z,1.28
2022-12-08T09:18:02.104Z,1.27
2022-12-08T09:20:34.857Z,1.24
2022-12-08T09:23:01.768Z,1.27
2022-12-08T09:25:28.609Z,1.26
2022-12-08T09:27:55.378Z,1.37
2022-12-08T09:30:32.666Z,1.27
2022-12-08T09:33:00.415Z,1.25
2022-12-08T09:35:27.039Z,1.31
2022-12-08T09:41:11.573Z,1.21
2022-12-08T09:47:44.980Z,1.19
2022-12-08T09:50:27.884Z,1.18
2022-12-08T09:53:18.516Z,1.15
2022-12-08T09:55:59.396Z,1.15
2022-12-08T09:58:53.836Z,0.89
2022-12-08T10:01:22.802Z,0.91
2022-12-08T10:03:49.916Z,0.99
2022-12-08T10:06:35.178Z,1.11
2022-12-08T10:09:22.939Z,1.36
2022-12-08T10:12:00.735Z,1.53
2022-12-08T10:15:16.969Z,1.65
2022-12-08T10:17:48.607Z,1.65
2022-12-08T10:20:35.460Z,1.69
2022-12-08T10:23:10.934Z,1.86
2022-12-08T10:26:03.348Z,1.94
2022-12-08T10:28:44.777Z,1.95
2022-12-08T10:31:25.062Z,1.98
2022-12-08T10:34:05.077Z,1.81
2022-12-08T10:36:51.056Z,1.99
2022-12-08T10:39:35.065Z,1.99
2022-12-08T10:42:16.076Z,1.97
2022-12-08T10:45:15.400Z,2.02
2022-12-08T10:47:52.325Z,2.06
2022-12-08T10:50:58.818Z,2.19
2022-12-08T10:53:30.450Z,2.04
2022-12-08T10:56:03.213Z,2.02
2022-12-08T10:58:48.082Z,1.96
2022-12-08T11:04:20.313Z,2.06
2022-12-08T11:06:55.316Z,2.12
2022-12-08T11:10:02.071Z,2.04
2022-12-08T11:12:30.605Z,2.04
2022-12-08T11:15:06.871Z,1.97
2022-12-08T11:17:41.741Z,2.06
2022-12-08T11:20:32.173Z,2.14
2022-12-08T11:22:59.114Z,2.15
2022-12-08T11:25:27.647Z,2.14
2022-12-08T11:28:00.627Z,2.19
2022-12-08T11:30:38.086Z,2.17
2022-12-08T11:33:30.269Z,2.27
2022-12-08T11:36:01.122Z,2.27
2022-12-08T11:38:28.735Z,2.18
2022-12-08T11:41:10.941Z,2.18
2022-12-08T11:43:48.565Z,2.25
2022-12-08T11:46:26.518Z,2.31
2022-12-08T11:49:05.639Z,2.23
2022-12-08T11:51:40.272Z,2.18
2022-12-08T11:54:16.880Z,2.28
2022-12-08T11:57:03.286Z,2.25
2022-12-08T11:59:33.408Z,2.07
2022-12-08T12:02:01.496Z,2.24
2022-12-08T12:04:52.774Z,2.13
2022-12-08T12:07:59.070Z,2.25
2022-12-08T12:10:33.840Z,2.27
2022-12-08T12:13:22.056Z,2.16
2022-12-08T12:16:06.707Z,2.27
2022-12-08T12:19:03.758Z,2.28
2022-12-08T12:21:48.763Z,2.33
2022-12-08T12:24:25.319Z,2.36
2022-12-08T12:27:02.453Z,2.36
2022-12-08T12:29:37.449Z,2.43
2022-12-08T12:32:09.217Z,2.46
2022-12-08T12:34:53.848Z,2.37
2022-12-08T12:37:26.552Z,2.56
2022-12-08T12:39:53.165Z,2.40
2022-12-08T12:42:38.626Z,2.43
2022-12-08T12:45:11.547Z,2.43
2022-12-08T12:47:56.561Z,2.36
2022-12-08T12:50:41.712Z,2.35
2022-12-08T12:53:17.950Z,2.31
2022-12-08T12:56:04.082Z,2.36
2022-12-08T12:58:30.636Z,2.35
2022-12-08T13:01:12.723Z,2.32
2022-12-08T13:03:42.503Z,2.29
2022-12-08T13:06:14.679Z,2.36
2022-12-08T13:08:50.666Z,2.40
2022-12-08T13:11:17.521Z,2.40
2022-12-08T13:14:04.030Z,2.39
2022-12-08T13:16:35.959Z,2.43
2022-12-08T13:19:05.191Z,2.59
2022-12-08T13:21:34.084Z,2.46
2022-12-08T13:24:27.490Z,2.37
2022-12-08T13:27:03.084Z,2.40
2022-12-08T13:29:31.038Z,2.42
2022-12-08T13:32:04.943Z,2.42
2022-12-08T13:34:41.227Z,2.31
2022-12-08T13:37:10.749Z,2.22
2022-12-08T13:39:40.245Z,2.22
2022-12-08T13:42:12.729Z,2.19
2022-12-08T13:47:34.664Z,2.09
2022-12-08T13:58:40.139Z,1.89
2022-12-08T14:01:13.051Z,1.98
2022-12-08T14:06:46.850Z,1.88
2022-12-08T14:09:19.386Z,1.83
2022-12-08T14:11:51.555Z,1.78
2022-12-08T14:15:02.529Z,1.74
2022-12-08T14:17:21.380Z,1.74
2022-12-08T14:19:58.312Z,1.75
2022-12-08T14:22:25.381Z,1.71
2022-12-08T14:24:54.019Z,1.70
2022-12-08T14:27:26.106Z,1.72
2022-12-08T14:29:55.558Z,1.72
2022-12-08T14:32:30.541Z,1.60
2022-12-08T14:35:09.812Z,1.54
2022-12-08T14:37:44.410Z,1.45
2022-12-08T14:40:49.487Z,1.43
2022-12-08T14:43:19.032Z,1.45
2022-12-08T14:45:45.574Z,1.36
2022-12-08T14:48:38.179Z,1.28
2022-12-08T14:51:07.645Z,1.23
2022-12-08T14:53:40.616Z,1.25
2022-12-08T14:56:14.808Z,1.26
2022-12-08T14:58:41.629Z,1.18
2022-12-08T15:01:11.376Z,1.22
2022-12-08T15:03:38.069Z,1.13
2022-12-08T15:06:06.734Z,1.07
2022-12-08T15:08:33.909Z,1.12
2022-12-08T15:11:22.236Z,1.12
2022-12-08T15:13:50.850Z,0.96
2022-12-08T15:16:37.230Z,0.90
2022-12-08T15:19:28.298Z,0.80
2022-12-08T15:21:57.871Z,0.81
2022-12-08T15:24:27.030Z,0.61
2022-12-08T15:26:53.851Z,0.60
2022-12-08T15:29:26.111Z,0.47
2022-12-08T15:31:55.038Z,0.57
2022-12-08T15:34:21.809Z,0.49
2022-12-08T15:36:50.835Z,0.60
2022-12-08T15:39:37.160Z,0.39
2022-12-08T15:42:06.568Z,0.44
2022-12-08T15:44:33.326Z,0.24
2022-12-08T15:47:00.187Z,0.15
2022-12-08T15:49:26.979Z,0.06
2022-12-08T15:52:05.004Z,0.14
2022-12-08T15:54:37.170Z,0.10
2022-12-08T15:57:19.007Z,-0.05
2022-12-08T15:59:47.213Z,-0.06
2022-12-08T16:02:18.020Z,-0.06
2022-12-08T16:05:33.485Z,-0.05
2022-12-08T16:07:38.049Z,-0.16
2022-12-08T16:10:06.459Z,-0.22
2022-12-08T16:15:57.102Z,-0.23
2022-12-08T16:18:27.976Z,-0.31
2022-12-08T16:21:22.900Z,-0.28
2022-12-08T16:23:43.470Z,-0.43
2022-12-08T16:27:06.809Z,-0.29
2022-12-08T16:29:08.858Z,-0.42
2022-12-08T16:31:35.555Z,-0.46
2022-12-08T16:34:02.418Z,-0.49
2022-12-08T16:36:31.911Z,-0.68
2022-12-08T16:38:58.584Z,-0.74
2022-12-08T16:41:43.764Z,-0.79
2022-12-08T16:44:10.520Z,-0.67
2022-12-08T16:46:37.227Z,-0.69
2022-12-08T16:49:04.835Z,-0.58
2022-12-08T16:51:36.183Z,-0.75
2022-12-08T16:54:05.153Z,-0.74
2022-12-08T16:56:33.468Z,-0.65
2022-12-08T16:59:05.941Z,-0.66
2022-12-08T17:01:37.736Z,-0.54
2022-12-08T17:04:30.478Z,-0.60
2022-12-08T17:06:52.970Z,-0.52
2022-12-08T17:09:19.761Z,-0.51
2022-12-08T17:11:46.386Z,-0.47
2022-12-08T17:14:13.761Z,-0.55
2022-12-08T17:16:41.109Z,-0.49
2022-12-08T17:19:07.897Z,-0.52
2022-12-08T17:21:34.668Z,-0.42
2022-12-08T17:24:01.413Z,-0.30
2022-12-08T17:26:28.071Z,-0.33
2022-12-08T17:29:01.816Z,-0.36
2022-12-08T17:31:40.763Z,-0.46
2022-12-08T17:34:12.108Z,-0.47
2022-12-08T17:36:38.841Z,-0.45
2022-12-08T17:39:06.078Z,-0.40
2022-12-08T17:41:34.297Z,-0.50
2022-12-08T17:44:00.920Z,-0.56
2022-12-08T17:46:27.599Z,-0.64
2022-12-08T17:48:54.277Z,-0.70
2022-12-08T17:51:20.975Z,-0.59
2022-12-08T17:53:47.640Z,-0.57
2022-12-08T17:56:19.385Z,-0.62
2022-12-08T17:58:54.235Z,-0.62
2022-12-08T18:01:21.703Z,-0.54
2022-12-08T18:03:48.464Z,-0.45
2022-12-08T18:06:15.145Z,-0.37
2022-12-08T18:08:41.804Z,-0.30
2022-12-08T18:11:17.957Z,-0.18
2022-12-08T18:13:45.628Z,-0.16
2022-12-08T18:16:12.440Z,-0.08
2022-12-08T18:18:39.072Z,-0.06
2022-12-08T18:21:16.373Z,-0.02
2022-12-08T18:23:52.235Z,0.05
2022-12-08T18:26:24.339Z,0.09
2022-12-08T18:31:52.076Z,0.18
2022-12-08T18:34:26.641Z,0.25
2022-12-08T18:36:55.541Z,0.25
2022-12-08T18:39:28.268Z,0.28
2022-12-08T18:41:57.668Z,0.27
2022-12-08T18:44:24.287Z,0.37
2022-12-08T18:46:51.106Z,0.31
2022-12-08T18:49:19.062Z,0.38
2022-12-08T18:51:46.181Z,0.43
2022-12-08T18:54:15.126Z,0.32
2022-12-08T18:56:41.769Z,0.28
2022-12-08T18:59:11.342Z,0.23
2022-12-08T19:01:39.795Z,0.21
2022-12-08T19:06:56.361Z,0.17
2022-12-08T19:09:23.097Z,0.13
2022-12-08T19:11:50.065Z,0.11
2022-12-08T19:14:16.835Z,0.07
2022-12-08T19:16:43.453Z,-0.01
2022-12-08T19:19:12.386Z,-0.10
2022-12-08T19:21:43.014Z,-0.26
2022-12-08T19:24:12.867Z,-0.43
2022-12-08T19:26:42.335Z,-0.56
2022-12-08T19:29:09.596Z,-0.67
2022-12-08T19:31:36.296Z,-0.80
2022-12-08T19:34:05.320Z,-0.92
2022-12-08T19:36:38.079Z,-1.00
2022-12-08T19:39:23.744Z,-1.11
2022-12-08T19:42:09.481Z,-1.21
2022-12-08T19:44:54.334Z,-1.28
2022-12-08T19:47:26.807Z,-1.23
2022-12-08T19:49:55.159Z,-1.25
2022-12-08T19:52:39.281Z,-1.25
2022-12-08T19:55:06.091Z,-1.28
2022-12-08T19:57:32.689Z,-1.31
2022-12-08T20:00:02.553Z,-1.33
2022-12-08T20:02:38.999Z,-1.35
2022-12-08T20:05:06.419Z,-1.42
2022-12-08T20:07:33.298Z,-1.53
2022-12-08T20:10:08.112Z,-1.61
2022-12-08T20:12:35.444Z,-1.70
2022-12-08T20:15:02.187Z,-1.68
2022-12-08T20:17:39.037Z,-1.72
2022-12-08T20:20:07.637Z,-1.82
2022-12-08T20:22:35.056Z,-1.90
2022-12-08T20:25:07.894Z,-1.98
2022-12-08T20:27:34.674Z,-2.05
2022-12-08T20:30:01.545Z,-2.12
2022-12-08T20:32:28.270Z,-2.22
2022-12-08T20:35:01.113Z,-2.17
2022-12-08T20:37:27.811Z,-2.26
2022-12-08T20:40:00.626Z,-2.32
2022-12-08T20:42:30.848Z,-2.33
2022-12-08T20:44:57.617Z,-2.37
2022-12-08T20:47:30.210Z,-2.37
2022-12-08T20:49:57.285Z,-2.41
2022-12-08T20:52:24.128Z,-2.38
2022-12-08T20:55:02.388Z,-2.39
2022-12-08T20:57:31.528Z,-2.44
2022-12-08T21:00:06.581Z,-2.42
2022-12-08T21:02:47.769Z,-2.48
2022-12-08T21:05:39.456Z,-2.52
2022-12-08T21:08:18.975Z,-2.50
2022-12-08T21:10:57.935Z,-2.47
2022-12-08T21:13:27.002Z,-2.53
2022-12-08T21:16:01.859Z,-2.53
2022-12-08T21:18:31.213Z,-2.53
2022-12-08T21:21:18.775Z,-2.55
2022-12-08T21:26:39.766Z,-2.55
2022-12-08T21:29:29.256Z,-2.57
2022-12-08T21:32:10.323Z,-2.56
2022-12-08T21:34:39.750Z,-2.55
2022-12-08T21:37:54.260Z,-2.31
2022-12-08T21:40:23.492Z,-2.16
2022-12-08T21:43:00.902Z,-1.91
2022-12-08T21:45:47.006Z,-1.76
2022-12-08T21:51:59.185Z,-1.49
2022-12-08T21:54:28.997Z,-1.34
2022-12-08T21:59:58.744Z,-1.15
2022-12-08T22:02:38.852Z,-1.06
2022-12-08T22:05:11.950Z,-1.03
2022-12-08T22:07:39.873Z,-1.01
2022-12-08T22:10:31.588Z,-0.94
2022-12-08T22:13:32.399Z,-0.86
2022-12-08T22:16:42.276Z,-0.85
2022-12-08T22:26:07.551Z,-0.80
2022-12-08T22:28:49.768Z,-0.76
2022-12-08T22:31:40.540Z,-0.76
2022-12-08T22:34:24.475Z,-0.73
2022-12-08T22:37:04.736Z,-0.72
2022-12-08T22:39:35.963Z,-0.69
2022-12-08T22:42:07.457Z,-0.77
2022-12-08T22:44:37.193Z,-0.89
2022-12-08T22:47:07.101Z,-1.03
2022-12-08T22:49:59.328Z,-1.20
2022-12-08T22:52:31.072Z,-1.32
2022-12-08T22:55:04.326Z,-1.48
2022-12-08T22:57:30.964Z,-1.63
2022-12-08T23:00:00.955Z,-1.74
2022-12-08T23:02:27.832Z,-1.88
2022-12-08T23:05:05.389Z,-1.96
2022-12-08T23:07:35.151Z,-2.00
2022-12-08T23:10:04.981Z,-2.10
2022-12-08T23:12:36.137Z,-2.19
2022-12-08T23:15:02.974Z,-2.18
2022-12-08T23:17:32.742Z,-2.24
2022-12-08T23:20:20.349Z,-2.26
2022-12-08T23:22:52.552Z,-2.28
2022-12-08T23:25:22.502Z,-2.26
2022-12-08T23:27:52.054Z,-2.29
2022-12-08T23:30:24.969Z,-2.30
2022-12-08T23:33:05.602Z,-2.30
2022-12-08T23:35:33.264Z,-2.24
2022-12-08T23:38:00.350Z,-2.31
2022-12-08T23:40:36.231Z,-2.20
2022-12-08T23:43:08.107Z,-2.18
2022-12-08T23:45:37.206Z,-2.27
2022-12-08T23:48:05.704Z,-2.30
2022-12-08T23:50:34.475Z,-2.12
2022-12-08T23:53:04.275Z,-2.14
2022-12-08T23:55:37.122Z,-2.21
2022-12-08T23:58:10.213Z,-2.26
